• Join FlightAware (Why Join?)
  • Login
  • US Flag 
04:12AM EDT


 

Airport Tracker/Info


-or-


 

Live Flight TrackerFlight Track Log ✈ AFL150 ✈ 27-Oct-2013 ✈ UUEE / SVO - MUHA / HAV

Flight Track Log - Related Links

Times and Time Zones

All times are in EDT time to prevent confusion due to time zone crossing. See the AFL150 flight status page for this flight to view local times or setup timezone preferences in your user account.

Time Position Orientation Groundspeed Altitude Reporting Facility
EDT Latitude Longitude Course Direction KTS MPH feet Rate Location/Type
05:35AM 55.9620 37.3600 252° West 174 200 2,400  Level FlightAware
05:36AM 55.9520 37.3000 253° West 203 234 3,400 1,500 Climbing FlightAware
05:36AM 55.9440 37.2480 255° West 229 264 4,200 1,620 Climbing FlightAware
05:37AM 55.9420 37.1790 267° West 255 293 5,200 2,220 Climbing FlightAware
05:37AM 55.9550 37.0990 286° West 263 303 7,000 2,760 Climbing FlightAware
05:38AM 55.9620 37.0340 281° West 266 306 8,400 2,700 Climbing FlightAware
05:39AM 55.9720 36.9450 281° West 271 312 10,200 1,980 Climbing FlightAware
05:39AM 55.9830 36.8540 282° West 307 353 11,100 1,260 Climbing FlightAware
05:40AM 55.9940 36.7610 282° West 341 392 11,800 1,680 Climbing FlightAware
05:41AM 56.0100 36.6340 283° West 361 415 13,400 2,400 Climbing FlightAware
05:41AM 56.0220 36.5300 282° West 366 421 15,000 2,520 Climbing FlightAware
05:42AM 56.0350 36.4270 283° West 370 426 16,400 2,400 Climbing FlightAware
05:42AM 56.0460 36.3380 283° West 374 430 17,600 2,160 Climbing FlightAware
05:43AM 56.0570 36.2440 282° West 383 441 18,600 1,860 Climbing FlightAware
05:44AM 56.0770 36.0720 282° West 396 456 20,300 1,860 Climbing FlightAware
05:44AM 56.0880 35.9750 282° West 401 461 21,300 1,800 Climbing FlightAware
05:45AM 56.1010 35.8610 282° West 407 468 22,300 1,680 Climbing FlightAware
05:45AM 56.1170 35.7280 282° West 414 476 23,400 1,620 Climbing FlightAware
05:46AM 56.1360 35.5580 281° West 422 486 24,800 1,560 Climbing FlightAware
05:47AM 56.1650 35.2980 281° West 432 497 26,700 1,680 Climbing FlightAware
05:48AM 56.1840 35.1240 281° West 426 490 28,300 1,740 Climbing FlightAware
05:49AM 56.1970 35.0030 281° West 426 490 29,200 1,440 Climbing FlightAware
05:49AM 56.2080 34.8980 281° West 425 489 29,900 1,380 Climbing FlightAware
05:50AM 56.2190 34.7940 281° West 424 488 30,600 1,260 Climbing FlightAware
05:50AM 56.2320 34.6750 281° West 425 489 31,300 1,080 Climbing FlightAware
05:51AM 56.2460 34.5350 280° West 421 484 32,000 600 Climbing FlightAware
05:52AM 56.2560 34.4360 280° West 416 479 32,000  Level FlightAware
05:52AM 56.2720 34.2800 281° West 422 486 32,000  Level FlightAware
05:53AM 56.2860 34.1430 280° West 422 486 32,000  Level FlightAware
05:54AM 56.3000 34.0050 280° West 424 488 32,000  Level FlightAware
05:54AM 56.3120 33.8810 280° West 425 489 32,000  Level FlightAware
05:55AM 56.3220 33.7760 280° West 425 489 32,000  Level FlightAware
05:55AM 56.3320 33.6720 280° West 426 490 32,000  Level FlightAware
05:56AM 56.3470 33.5150 280° West 428 493 32,000  Level FlightAware
05:56AM 56.3550 33.4280 279° West 428 493 32,000  Level FlightAware
05:57AM 56.3730 33.2340 280° West 429 494 32,000  Level FlightAware
05:58AM 56.3860 33.0940 280° West 430 495 32,000  Level FlightAware
05:59AM 56.3990 32.9510 279° West 430 495 32,000  Level FlightAware
05:59AM 56.4100 32.8290 279° West 431 496 32,000  Level FlightAware
06:00AM 56.4240 32.6720 279° West 431 496 32,000  Level FlightAware
06:01AM 56.4400 32.4940 279° West 432 497 32,000  Level FlightAware
06:01AM 56.4480 32.3890 278° West 432 497 32,000  Level FlightAware
06:02AM 56.4600 32.2490 279° West 433 498 32,000  Level FlightAware
06:03AM 56.4700 32.1270 278° West 433 498 32,000  Level FlightAware
06:03AM 56.4760 32.0540 278° West 433 498 32,000  Level FlightAware
06:04AM 56.4840 31.9440 278° West 433 498 32,000  Level FlightAware
06:05AM 56.4960 31.7910 278° West 433 498 32,000  Level FlightAware
06:05AM 56.5050 31.6780 278° West 433 498 32,000  Level FlightAware
06:06AM 56.5150 31.5370 277° West 433 498 32,000  Level FlightAware
06:06AM 56.5370 31.2900 279° West 441 507 32,000  Level FlightAware
06:07AM 56.5440 31.1960 278° West 442 509 32,000  Level FlightAware
06:08AM 56.5530 31.0710 277° West 442 509 32,000  Level FlightAware
06:08AM 56.6130 30.9470 311° West 423 487 32,000  Level FlightAware
06:09AM 56.6970 30.7650 310° West 423 487 32,000  Level FlightAware
06:10AM 56.7420 30.6550 307° West 426 490 32,000  Level FlightAware
06:10AM 56.7690 30.5850 305° West 426 490 32,000  Level FlightAware
06:11AM 56.8140 30.4630 304° West 425 489 32,000  Level FlightAware
06:12AM 56.8510 30.3640 304° West 424 488 32,000  Level FlightAware
06:12AM 56.8910 30.2550 304° West 423 487 32,000  Level FlightAware
06:13AM 56.9430 30.1120 304° West 421 484 32,000  Level FlightAware
06:14AM 57.0180 29.9060 304° West 418 481 32,000  Level FlightAware
06:15AM 57.0450 29.8300 303° West 418 481 32,000  Level FlightAware
06:16AM 57.1040 29.6680 304° West 418 481 32,000  Level FlightAware
06:16AM 57.1370 29.5750 303° West 418 481 32,000  Level FlightAware
06:17AM 57.1880 29.4330 304° West 418 481 32,000  Level FlightAware
06:18AM 57.2280 29.3180 303° West 418 481 32,000  Level FlightAware
06:18AM 57.2660 29.2110 303° West 419 482 32,000  Level FlightAware
06:19AM 57.3080 29.0930 303° West 419 482 32,000  Level FlightAware
06:19AM 57.3400 29.0010 303° West 419 482 32,000  Level FlightAware
06:20AM 57.3930 28.8490 303° West 420 483 32,000  Level FlightAware
06:21AM 57.4350 28.7280 303° West 420 483 32,000  Level FlightAware
06:21AM 57.4760 28.6080 302° West 420 483 32,000  Level FlightAware
06:22AM 57.5150 28.4950 303° West 420 483 32,000  Level FlightAware
06:23AM 57.5510 28.3890 302° West 421 484 32,000  Level FlightAware
06:23AM 57.5880 28.2800 302° West 420 483 32,000  Level FlightAware
06:24AM 57.6190 28.1870 302° West 420 483 32,000  Level FlightAware
06:24AM 57.6640 28.0550 303° West 421 484 32,000  Level FlightAware
06:25AM 57.7090 27.9200 302° West 422 486 32,000  Level FlightAware
06:26AM 57.7510 27.7960 302° West 422 486 32,000  Level FlightAware
06:26AM 57.7870 27.6860 302° West 422 486 32,000  Level FlightAware
06:27AM 57.8160 27.6000 302° West 422 486 32,000  Level FlightAware
06:27AM 57.8450 27.4910 297° West 424 488 32,000  Level FlightAware
06:28AM 57.8870 27.2810 291° West 424 488 32,000  Level FlightAware
06:29AM 57.9170 27.1310 291° West 425 489 32,000  Level FlightAware
06:30AM 57.9420 27.0080 291° West 426 490 32,000  Level FlightAware
06:30AM 57.9700 26.8690 291° West 427 491 32,000  Level FlightAware
06:31AM 58.0110 26.6590 290° West 427 491 32,000  Level FlightAware
06:32AM 58.0410 26.5090 291° West 428 493 32,000  Level FlightAware
06:33AM 58.0650 26.3840 290° West 428 493 32,000  Level FlightAware
06:34AM 58.0960 26.2220 290° West 428 493 32,000  Level FlightAware
06:34AM 58.1170 26.1110 290° West 430 495 32,000  Level FlightAware
06:35AM 58.1500 25.9380 290° West 429 494 32,000  Level FlightAware
06:36AM 58.1790 25.7850 290° West 430 495 32,000  Level FlightAware
06:37AM 58.2220 25.5540 290° West 430 495 32,000  Level FlightAware
06:37AM 58.2480 25.4160 290° West 431 496 32,000  Level FlightAware
06:38AM 58.2720 25.2820 289° West 432 497 32,000  Level FlightAware
06:39AM 58.3000 25.1280 289° West 433 498 32,000  Level FlightAware
06:39AM 58.3240 24.9960 289° West 434 499 32,000  Level FlightAware
06:40AM 58.3440 24.8870 289° West 434 499 32,000  Level FlightAware
06:41AM 58.3730 24.7220 289° West 434 499 32,000  Level FlightAware
06:41AM 58.4000 24.5710 289° West 435 501 32,000  Level FlightAware
06:42AM 58.4280 24.4090 288° West 436 502 32,000  Level FlightAware
06:43AM 58.4500 24.2560 285° West 437 503 32,000  Level FlightAware
06:43AM 58.4720 24.1110 286° West 436 502 32,000  Level FlightAware
06:44AM 58.4930 23.9740 286° West 436 502 32,000  Level FlightAware
06:45AM 58.5130 23.8400 286° West 437 503 32,000  Level FlightAware
06:45AM 58.5320 23.7090 286° West 438 504 32,000  Level FlightAware
06:46AM 58.5500 23.5900 286° West 439 505 32,000  Level FlightAware
06:46AM 58.5700 23.4510 285° West 440 506 32,000  Level FlightAware
06:47AM 58.5880 23.3280 286° West 439 505 32,000  Level FlightAware
06:47AM 58.6080 23.1860 285° West 440 506 32,000  Level FlightAware
06:48AM 58.6250 23.0640 285° West 441 507 32,000  Level FlightAware
06:49AM 58.6450 22.9240 285° West 441 507 32,000  Level FlightAware
06:49AM 58.6630 22.7950 285° West 441 507 32,000  Level FlightAware
06:50AM 58.6860 22.6270 285° West 441 507 32,000  Level FlightAware
06:51AM 58.7060 22.4760 284° West 442 509 32,000  Level FlightAware
06:51AM 58.7290 22.3090 285° West 443 510 32,000  Level FlightAware
06:52AM 58.7520 22.1370 285° West 443 510 32,000  Level FlightAware
06:53AM 58.7750 21.9630 284° West 445 512 32,000  Level FlightAware
06:54AM 58.7980 21.7890 284° West 444 511 32,000  Level FlightAware
06:54AM 58.8190 21.6230 284° West 445 512 32,000  Level FlightAware
06:55AM 58.8440 21.4300 284° West 444 511 32,000  Level FlightAware
06:56AM 58.8610 21.2960 284° West 444 511 32,000  Level FlightAware
06:57AM 58.8900 21.0920 285° West 448 516 32,000  Level FlightAware
06:57AM 58.9120 20.9570 288° West 449 517 32,000  Level FlightAware
06:58AM 58.9270 20.8670 288° West 450 518 32,000  Level FlightAware
06:58AM 58.9600 20.6680 288° West 451 519 32,000  Level FlightAware
06:59AM 58.9880 20.4940 287° West 452 520 32,000  Level FlightAware
07:00AM 59.0330 20.2180 288° West 455 524 32,000  Level FlightAware
07:01AM 59.0560 20.0730 287° West 456 525 32,000  Level FlightAware
07:02AM 59.0800 19.9200 287° West 456 525 32,000  Level FlightAware
07:02AM 59.1050 19.7570 287° West 457 526 32,000  Level FlightAware
07:03AM 59.1230 19.6420 287° West 458 527 32,000  Level FlightAware
07:04AM 59.1480 19.4780 287° West 458 527 32,000  Level FlightAware
07:04AM 59.1720 19.3240 287° West 457 526 32,000  Level FlightAware
07:05AM 59.1920 19.1890 286° West 457 526 32,000  Level FlightAware
07:05AM 59.2140 19.0470 287° West 457 526 32,000  Level FlightAware
07:06AM 59.2480 18.8140 286° West 457 526 32,000  Level FlightAware
07:07AM 59.2660 18.6920 286° West 456 525 32,000  Level FlightAware
07:07AM 59.2860 18.5540 286° West 455 524 32,000  Level FlightAware
07:08AM 59.3100 18.3860 286° West 453 521 32,000  Level FlightAware
07:09AM 59.3320 18.2340 286° West 451 519 32,000  Level FlightAware
07:09AM 59.3530 18.0880 286° West 450 518 32,000  Level FlightAware
07:10AM 59.3740 17.9330 285° West 448 516 32,000  Level FlightAware
07:11AM 59.3990 17.7570 286° West 447 514 32,000  Level FlightAware
07:11AM 59.4100 17.6740 285° West 446 513 32,000  Level FlightAware
07:12AM 59.4390 17.4630 285° West 444 511 32,000  Level FlightAware
07:13AM 59.4540 17.3540 285° West 443 510 32,000  Level FlightAware
07:13AM 59.4730 17.2090 285° West 442 509 32,000  Level FlightAware
07:14AM 59.4940 17.0510 285° West 441 507 32,000  Level FlightAware
07:15AM 59.5150 16.8920 285° West 440 506 32,000  Level FlightAware
07:15AM 59.5340 16.7400 284° West 440 506 32,000  Level FlightAware
07:16AM 59.5550 16.5800 285° West 440 506 32,000  Level FlightAware
07:17AM 59.5790 16.3930 284° West 440 506 32,000  Level FlightAware
07:17AM 59.5960 16.2570 284° West 439 505 32,000  Level FlightAware
07:18AM 59.6130 16.1160 283° West 439 505 32,000  Level FlightAware
07:19AM 59.6330 15.9560 284° West 440 506 32,000  Level FlightAware
07:19AM 59.6490 15.8210 283° West 439 505 32,000  Level FlightAware
07:20AM 59.6690 15.6600 284° West 438 504 32,000  Level FlightAware
07:20AM 59.6850 15.5260 283° West 437 503 32,000  Level FlightAware
07:21AM 59.7030 15.3730 283° West 438 504 32,000  Level FlightAware
07:22AM 59.7170 15.2540 283° West 437 503 32,000  Level FlightAware
07:22AM 59.7350 15.0950 283° West 436 502 32,000  Level FlightAware
07:23AM 59.7510 14.9530 283° West 436 502 32,000  Level FlightAware
07:23AM 59.7650 14.8340 283° West 435 501 32,000  Level FlightAware
07:24AM 59.7910 14.5990 282° West 435 501 32,000  Level FlightAware
07:25AM 59.8010 14.5070 282° West 434 499 32,000  Level FlightAware
07:26AM 59.8210 14.3300 283° West 432 497 32,000  Level FlightAware
07:26AM 59.8390 14.1550 282° West 430 495 32,000  Level FlightAware
07:27AM 59.8590 13.9720 282° West 430 495 32,000  Level FlightAware
07:28AM 59.8880 13.6970 282° West 426 490 32,000  Level FlightAware
07:29AM 59.9010 13.5710 282° West 424 488 32,000  Level FlightAware
07:30AM 59.9270 13.3130 281° West 423 487 32,000  Level FlightAware
07:31AM 59.9430 13.1600 282° West 423 487 32,000  Level FlightAware
07:31AM 59.9570 13.0510 284° West 427 491 32,000  Level FlightAware
07:32AM 59.9790 12.8990 286° West 433 498 32,000  Level FlightAware
07:32AM 59.9970 12.7800 287° West 435 501 32,000  Level FlightAware
07:33AM 60.0320 12.5490 287° West 433 498 32,000  Level FlightAware
07:34AM 60.0590 12.3670 287° West 432 497 32,000 60 Level FlightAware
07:35AM 60.0840 12.1950 286° West 433 498 32,100 600 Climbing FlightAware
07:36AM 60.1070 12.0300 286° West 432 497 32,900 1,140 Climbing FlightAware
07:36AM 60.1220 11.9210 285° West 428 493 33,500 960 Climbing FlightAware
07:37AM 60.1440 11.7690 286° West 428 493 34,000 360 Climbing FlightAware
07:37AM 60.1670 11.6020 286° West 429 494 34,000  Level FlightAware
07:38AM 60.1900 11.4320 285° West 432 497 34,000  Level FlightAware
07:39AM 60.2070 11.3100 286° West 432 497 34,000  Level FlightAware
07:39AM 60.2260 11.1670 285° West 432 497 34,000  Level FlightAware
07:40AM 60.2480 11.0040 285° West 430 495 34,000  Level FlightAware
07:41AM 60.2670 10.8590 285° West 431 496 34,000  Level FlightAware
07:41AM 60.2890 10.6890 285° West 429 494 34,000  Level FlightAware
07:42AM 60.3120 10.5100 285° West 426 490 34,000  Level FlightAware
07:43AM 60.3300 10.3730 285° West 426 490 34,000  Level FlightAware
07:43AM 60.3480 10.2260 284° West 424 488 34,000  Level FlightAware
07:45AM 60.3840 9.9420 285° West 429 494 34,000  Level FlightAware
07:45AM 60.4010 9.7990 284° West 431 496 34,000  Level FlightAware
07:46AM 60.4200 9.6450 284° West 433 498 34,000  Level FlightAware
07:47AM 60.4390 9.4870 284° West 433 498 34,000  Level FlightAware
07:47AM 60.4550 9.3530 284° West 431 496 34,000  Level FlightAware
07:48AM 60.4760 9.1730 283° West 433 498 34,000  Level FlightAware
07:49AM 60.4950 9.0160 284° West 436 502 34,000  Level FlightAware
07:49AM 60.5090 8.8900 283° West 438 504 34,000  Level FlightAware
07:50AM 60.5290 8.7120 283° West 440 506 34,000  Level FlightAware
07:50AM 60.5470 8.5550 283° West 443 510 34,000  Level FlightAware
07:51AM 60.5690 8.3610 283° West 444 511 34,000  Level FlightAware
07:52AM 60.5950 8.1170 282° West 446 513 34,000  Level FlightAware
07:53AM 60.6070 8.0130 283° West 448 516 34,000  Level FlightAware
07:53AM 60.6240 7.8480 282° West 449 517 34,000  Level FlightAware
07:54AM 60.6536 7.5689 282° West 452 520 34,000  Level FlightAware ADS-B (EGBP)
07:55AM 60.6667 7.4422 282° West 454 522 34,000  Level FlightAware ADS-B (EGBP)
07:56AM 60.6836 7.2765 282° West 455 524 34,000  Level FlightAware ADS-B (EGBP)
07:56AM 60.7008 7.1073 282° West 453 521 34,000  Level FlightAware ADS-B (EGBP)
07:57AM 60.7174 6.9404 282° West 449 517 34,000  Level FlightAware ADS-B (EGBP)
07:58AM 60.7330 6.7804 281° West 445 512 34,000  Level FlightAware ADS-B (EGBP)
07:58AM 60.7455 6.6530 281° West 440 506 34,000  Level FlightAware ADS-B (EGBP)
07:59AM 60.7571 6.5316 281° West 435 501 34,000  Level FlightAware ADS-B (EGBP)
07:59AM 60.7722 6.3721 281° West 433 498 34,000  Level FlightAware ADS-B (EGBP)
08:00AM 60.7835 6.2511 281° West 430 495 34,000  Level FlightAware ADS-B (EGBP)
08:00AM 60.7946 6.1309 281° West 429 494 34,000  Level FlightAware ADS-B (EGBP)
08:01AM 60.8086 5.9780 281° West 430 495 34,000  Level FlightAware ADS-B (EGBP)
08:01AM 60.8196 5.8579 281° West 433 498 34,000  Level FlightAware ADS-B (EGBP)
08:02AM 60.8306 5.7353 281° West 436 502 34,000  Level FlightAware ADS-B (EGBP)
08:03AM 60.8530 5.4780 280° West 439 505 34,000  Level FlightAware
08:04AM 60.8645 5.3390 280° West  Level Estimated
08:04AM 60.8690 5.2910 280° West 444 511 34,000  Level FlightAware
08:04AM 60.8840 5.1190 280° West 449 517 34,000  Level FlightAware
08:05AM 60.8980 4.9550 280° West 452 520 34,000  Level FlightAware
08:06AM 60.9110 4.7990 280° West 454 522 34,000  Level FlightAware
08:06AM 60.9200 4.6790 279° West 455 524 34,000  Level FlightAware
08:07AM 60.9400 4.4310 280° West 454 522 34,000  Level FlightAware
08:08AM 60.9520 4.2840 280° West 454 522 34,000  Level FlightAware
08:08AM 60.9640 4.1240 279° West 454 522 34,000  Level FlightAware
08:09AM 60.9780 3.9400 279° West 454 522 34,000  Level FlightAware
08:10AM 60.9910 3.7710 279° West 454 522 34,000  Level FlightAware
08:10AM 60.9980 3.6760 279° West 452 520 34,000  Level FlightAware
08:11AM 61.0090 3.5230 279° West 452 520 34,000  Level FlightAware
08:12AM 61.0250 3.2910 278° West 451 519 34,000  Level FlightAware
08:12AM 61.0370 3.1260 279° West 450 518 34,000  Level FlightAware
08:13AM 61.0470 2.9710 278° West 451 519 34,000  Level FlightAware
08:14AM 61.0580 2.8060 278° West 451 519 34,000  Level FlightAware
08:14AM 61.0700 2.6190 278° West 450 518 34,000  Level FlightAware
08:15AM 61.0890 2.3330 278° West 452 520 34,000  Level FlightAware
08:16AM 61.1000 2.1520 277° West 453 521 34,000  Level FlightAware
08:17AM 61.1110 1.9700 277° West 453 521 34,000  Level FlightAware
08:17AM 61.1210 1.8100 277° West 454 522 34,000  Level FlightAware
08:18AM 61.1300 1.6430 276° West 453 521 34,000  Level FlightAware
08:19AM 61.1400 1.4680 277° West 452 520 34,000  Level FlightAware
08:19AM 61.1510 1.2800 277° West 451 519 34,000  Level FlightAware
08:20AM 61.1600 1.1150 277° West 450 518 34,000  Level FlightAware
08:21AM 61.1680 0.9570 276° West 450 518 34,000  Level FlightAware
08:21AM 61.1770 0.7710 276° West 448 516 34,000  Level FlightAware
08:22AM 61.1860 0.5980 276° West 448 516 34,000  Level FlightAware
08:23AM 61.1960 0.3870 276° West 447 514 34,000  Level FlightAware
08:24AM 61.2050 0.2030 276° West 446 513 34,000  Level FlightAware
08:25AM 61.2240 -0.0340 280° West 455 524 34,000  Level FlightAware
08:25AM 61.2640 -0.2200 294° West 460 529 34,000  Level FlightAware
08:26AM 61.3030 -0.3930 295° West 461 531 34,000  Level FlightAware
08:27AM 61.3320 -0.5250 295° West 461 531 34,000  Level FlightAware
08:27AM 61.3680 -0.6870 295° West 463 533 34,000  Level FlightAware
08:28AM 61.4070 -0.8630 295° West 463 533 34,000  Level FlightAware
08:29AM 61.4420 -1.0240 295° West 463 533 34,000  Level FlightAware
08:29AM 61.4820 -1.2090 294° West 463 533 34,000  Level FlightAware
08:30AM 61.5190 -1.3830 294° West 464 534 34,000  Level FlightAware
08:31AM 61.5540 -1.5520 294° West 466 536 34,000  Level FlightAware
08:31AM 61.5810 -1.6780 294° West 466 536 34,000  Level FlightAware
08:32AM 61.6170 -1.8510 294° West 465 535 34,000  Level FlightAware
08:33AM 61.6540 -2.0280 294° West 465 535 34,000  Level FlightAware
08:34AM 61.6940 -2.2260 293° West 465 535 34,000  Level FlightAware
08:34AM 61.7270 -2.3860 294° West 465 535 34,000  Level FlightAware
08:35AM 61.7610 -2.5540 293° West 464 534 34,000  Level FlightAware
08:36AM 61.8000 -2.7480 293° West 463 533 34,000  Level FlightAware
08:36AM 61.8320 -2.9150 292° West 463 533 34,000  Level FlightAware
08:37AM 61.8570 -3.0440 292° West 463 533 34,000  Level FlightAware
08:38AM 61.8940 -3.2250 294° West 465 535 34,000  Level FlightAware
08:38AM 61.9250 -3.3880 292° West 465 535 34,000  Level FlightAware
08:39AM 61.9500 -3.5170 292° West 465 535 34,000  Level FlightAware
08:40AM 61.9820 -3.6900 292° West 465 535 34,000  Level FlightAware
08:40AM 62.0070 -3.8200 292° West 465 535 34,000  Level FlightAware
08:41AM 62.0460 -4.0260 292° West 463 533 34,000  Level FlightAware
08:42AM 62.0810 -4.2180 291° West 463 533 34,000  Level FlightAware
08:42AM 62.1030 -4.3420 291° West 463 533 34,000  Level FlightAware
08:43AM 62.1270 -4.4760 291° West 463 533 34,000  Level FlightAware
08:43AM 62.1510 -4.6070 291° West 463 533 34,000  Level FlightAware
08:44AM 62.1740 -4.7380 291° West 463 533 34,000  Level FlightAware
08:45AM 62.2060 -4.9170 291° West 463 533 34,000  Level FlightAware
08:45AM 62.2620 -5.2140 292° West 459 528 34,000  Level FlightAware
08:46AM 62.3010 -5.4440 290° West 459 528 34,000  Level FlightAware
08:47AM 62.3300 -5.6190 290° West 459 528 34,000  Level FlightAware
08:48AM 62.3700 -5.8380 292° West 459 528 34,000  Level FlightAware
08:49AM 62.3960 -5.9940 290° West 459 528 34,000  Level FlightAware
08:49AM 62.4180 -6.1260 290° West 459 528 34,000  Level FlightAware
08:50AM 62.4460 -6.2920 290° West 460 529 34,000  Level FlightAware
08:50AM 62.4600 -6.3850 288° West 460 529 34,000  Level FlightAware
08:51AM 62.4980 -6.6140 290° West 460 529 34,000  Level FlightAware
08:52AM 62.5260 -6.7920 289° West 460 529 34,000  Level FlightAware
08:52AM 62.5470 -6.9250 289° West 460 529 34,000  Level FlightAware
08:53AM 62.5760 -7.1030 290° West 460 529 34,000  Level FlightAware
08:54AM 62.5970 -7.2370 289° West 460 529 34,000  Level FlightAware
08:55AM 62.6320 -7.4600 289° West 460 529 34,000  Level FlightAware
08:56AM 62.5240 -6.7760 109° East 461 531 34,000  Level FlightAware
08:57AM 62.5520 -6.9540 289° West 461 531 34,000  Level FlightAware
08:58AM 62.5730 -7.0880 289° West 461 531 34,000  Level FlightAware
08:58AM 62.5950 -7.2220 290° West 461 531 34,000  Level FlightAware
09:01AM 62.5839 -7.8626 268° West  Level Estimated
09:02AM 62.5783 -8.1312 268° West  Level Estimated
09:03AM 62.5723 -8.3997 267° West  Level Estimated
09:03AM 62.9940 -9.9510 267° West 472 543 34,000  Level FlightAware
09:04AM 62.5657 -8.6681 267° West  Level Estimated
09:04AM 63.0200 -10.1440 287° West 472 543 34,000  Level FlightAware
09:05AM 63.0450 -10.3240 287° West 471 542 34,000  Level FlightAware
09:05AM 63.0730 -10.5300 287° West 467 537 34,000  Level FlightAware
09:06AM 63.0970 -10.7110 286° West 466 536 34,000  Level FlightAware
09:07AM 63.1210 -10.8900 287° West 464 534 34,000  Level FlightAware
09:07AM 63.1480 -11.0940 286° West 462 532 34,000  Level FlightAware
09:08AM 63.1710 -11.2740 286° West 460 529 34,000  Level FlightAware
09:09AM 63.1950 -11.4600 286° West 460 529 34,000  Level FlightAware
09:09AM 63.2170 -11.6370 285° West 460 529 34,000  Level FlightAware
09:10AM 63.2350 -11.7830 285° West 459 528 34,000  Level FlightAware
09:11AM 63.2550 -11.9390 286° West 460 529 34,000  Level FlightAware
09:11AM 63.2810 -12.1540 285° West 460 529 34,000  Level FlightAware
09:12AM 63.3060 -12.3540 286° West 461 531 34,000  Level FlightAware
09:13AM 63.3220 -12.4930 284° West 461 531 34,000  Level FlightAware
09:13AM 63.3450 -12.6860 285° West 463 533 34,000  Level FlightAware
09:14AM 63.3780 -12.9720 285° West 464 534 34,000  Level FlightAware
09:15AM 63.3990 -13.1510 285° West 466 536 34,000  Level FlightAware
09:16AM 63.4180 -13.3220 284° West 466 536 34,000  Level FlightAware
09:16AM 63.4370 -13.4870 285° West 466 536 34,000  Level FlightAware
09:17AM 63.4740 -13.8230 284° West 469 540 34,000  Level FlightAware
09:18AM 63.4900 -13.9730 284° West 469 540 34,000  Level FlightAware
09:19AM 63.5080 -14.1450 283° West 469 540 34,000  Level FlightAware
09:19AM 63.5320 -14.3710 283° West 470 541 34,000  Level FlightAware
09:20AM 63.5500 -14.5420 283° West 471 542 34,000  Level FlightAware
09:21AM 63.5700 -14.7420 283° West 471 542 34,000  Level FlightAware
09:21AM 63.5870 -14.9110 283° West 471 542 34,000  Level FlightAware
09:22AM 63.6070 -15.1050 283° West 471 542 34,000  Level FlightAware
09:22AM 63.6200 -15.2460 282° West 472 543 34,000  Level FlightAware
09:23AM 63.6350 -15.4060 282° West 472 543 34,000  Level FlightAware
09:25AM 63.6770 -15.8380 283° West 473 544 34,000  Level FlightAware
09:25AM 63.6950 -16.0340 282° West 473 544 34,000  Level FlightAware
09:26AM 63.7110 -16.2090 282° West 474 545 34,000  Level FlightAware
09:26AM 63.7270 -16.3920 281° West 474 545 34,000  Level FlightAware
09:27AM 63.7410 -16.5460 282° West 474 545 34,000  Level FlightAware
09:28AM 63.7570 -16.7280 281° West 473 544 34,000  Level FlightAware
09:28AM 63.7790 -16.9920 281° West 471 542 34,000  Level FlightAware
09:29AM 63.7950 -17.1810 281° West 471 542 34,000  Level FlightAware
09:30AM 63.8090 -17.3540 280° West 472 543 34,000  Level FlightAware
09:30AM 63.8230 -17.5180 281° West 471 542 34,000  Level FlightAware
09:31AM 63.8400 -17.7330 280° West 471 542 34,000  Level FlightAware
09:32AM 63.8550 -17.9330 280° West 471 542 34,000  Level FlightAware
09:32AM 63.8730 -18.1590 280° West 469 540 34,000  Level FlightAware
09:33AM 63.8870 -18.3530 279° West 469 540 34,000  Level FlightAware
09:34AM 63.9020 -18.5510 280° West 469 540 34,000  Level FlightAware
09:34AM 63.9150 -18.7280 280° West 468 539 34,000  Level FlightAware
09:35AM 63.9280 -18.9190 279° West 467 537 34,000  Level FlightAware
09:36AM 63.9410 -19.1040 279° West 467 537 34,000  Level FlightAware
09:36AM 63.9520 -19.2660 279° West 467 537 34,000  Level FlightAware
09:37AM 63.9690 -19.5130 279° West 467 537 34,000  Level FlightAware
09:38AM 63.9880 -19.8040 279° West 464 534 34,000  Level FlightAware
09:39AM 64.0030 -20.0050 280° West 464 534 34,000  Level FlightAware
09:40AM 64.0280 -20.2080 286° West 463 533 34,000  Level FlightAware
09:40AM 64.0540 -20.3940 288° West 463 533 34,000  Level FlightAware
09:41AM 64.0770 -20.5640 287° West 463 533 34,000  Level FlightAware
09:41AM 64.0990 -20.7320 287° West 464 534 34,000  Level FlightAware
09:42AM 64.1240 -20.9190 287° West 463 533 34,000  Level FlightAware
09:43AM 64.1450 -21.0760 287° West 463 533 34,000  Level FlightAware
09:43AM 64.1700 -21.2730 286° West 462 532 34,000  Level FlightAware
09:44AM 64.1940 -21.4620 286° West 462 532 34,000  Level FlightAware
09:45AM 64.2180 -21.6470 287° West 461 531 34,000  Level FlightAware
09:45AM 64.2350 -21.7910 285° West 460 529 34,000  Level FlightAware
09:46AM 64.2610 -21.9970 286° West 459 528 34,000  Level FlightAware
09:47AM 64.2860 -22.2040 286° West 458 527 34,000  Level FlightAware
09:47AM 64.3030 -22.3420 286° West 458 527 34,000  Level FlightAware
09:48AM 64.3290 -22.5600 285° West 456 525 34,000  Level FlightAware
09:49AM 64.3490 -22.7290 285° West 456 525 34,000  Level FlightAware
09:49AM 64.3690 -22.9020 285° West 455 524 34,000  Level FlightAware
09:50AM 64.3930 -23.1160 285° West 456 525 34,000  Level FlightAware
09:50AM 64.4100 -23.2650 285° West 456 525 34,000  Level FlightAware
09:51AM 64.4330 -23.4740 284° West 456 525 34,000  Level FlightAware
09:52AM 64.4490 -23.6170 285° West 456 525 34,000  Level FlightAware
09:52AM 64.4690 -23.7960 285° West 455 524 34,000  Level FlightAware
09:53AM 64.4900 -23.9910 284° West 455 524 34,000  Level FlightAware
09:54AM 64.5080 -24.1610 284° West 454 522 34,000  Level FlightAware
09:54AM 64.5270 -24.3410 284° West 453 521 34,000  Level FlightAware
09:55AM 64.5420 -24.4830 284° West 453 521 34,000  Level FlightAware
09:55AM 64.5600 -24.6630 283° West 452 520 34,000  Level FlightAware
09:56AM 64.5790 -24.8490 283° West 451 519 34,000  Level FlightAware
09:57AM 64.5960 -25.0210 283° West 452 520 34,000  Level FlightAware
09:57AM 64.6110 -25.1710 283° West 453 521 34,000  Level FlightAware
09:58AM 64.6260 -25.3240 283° West 453 521 34,000  Level FlightAware
09:59AM 64.6610 -25.6940 283° West 453 521 34,000  Level FlightAware
10:00AM 64.6780 -25.8730 283° West 452 520 34,000  Level FlightAware
10:00AM 64.6940 -26.0450 282° West 452 520 34,000  Level FlightAware
10:01AM 64.7080 -26.2030 282° West 450 518 34,000  Level FlightAware
10:02AM 64.7280 -26.4270 282° West 449 517 34,000  Level FlightAware
10:02AM 64.7420 -26.5780 282° West 448 516 34,000  Level FlightAware
10:03AM 64.7590 -26.7750 282° West 445 512 34,000  Level FlightAware
10:04AM 64.7770 -26.9900 281° West 445 512 34,000  Level FlightAware
10:04AM 64.7930 -27.1820 281° West 445 512 34,000  Level FlightAware
10:05AM 64.8100 -27.3870 281° West 445 512 34,000  Level FlightAware
10:06AM 64.8230 -27.5410 281° West 445 512 34,000  Level FlightAware
10:06AM 64.8390 -27.7440 281° West 446 513 34,000  Level FlightAware
10:07AM 64.8550 -27.9460 281° West 449 517 34,000  Level FlightAware
10:08AM 64.8730 -28.1730 281° West 451 519 34,000  Level FlightAware
10:08AM 64.8880 -28.3790 280° West 452 520 34,000  Level FlightAware
10:09AM 64.9000 -28.5340 280° West 452 520 34,000  Level FlightAware
10:10AM 64.9170 -28.7680 280° West 453 521 34,000  Level FlightAware
10:10AM 64.9270 -28.9130 279° West 454 522 34,000  Level FlightAware
10:11AM 64.9330 -28.9930 280° West 454 522 34,000  Level FlightAware
10:12AM 64.9520 -29.2730 279° West 453 521 34,000  Level FlightAware
10:13AM 64.9780 -29.6580 279° West 448 516 34,000  Level FlightAware
10:13AM 64.9870 -29.8110 278° West 448 516 34,000  Level FlightAware
10:14AM 65.0000 -30.0140 279° West 438 504 34,000  Level FlightAware
10:15AM 65.0070 -30.2140 275° West 423 487 34,000  Level FlightAware
10:15AM 65.0120 -30.3760 274° West 416 479 34,000  Level FlightAware
10:16AM 65.0160 -30.5200 274° West 415 478 34,000  Level FlightAware
10:16AM 65.0210 -30.6710 275° West 420 483 34,000  Level FlightAware
10:17AM 65.0250 -30.8130 274° West 423 487 34,000  Level FlightAware
10:18AM 65.0300 -31.0290 273° West 423 487 34,000  Level FlightAware
10:18AM 65.0330 -31.1710 273° West 423 487 34,000  Level FlightAware
10:19AM 65.0370 -31.3600 273° West 423 487 34,000  Level FlightAware
10:20AM 65.0420 -31.5530 274° West 423 487 34,000  Level FlightAware
10:20AM 65.0440 -31.6470 273° West 423 487 34,000  Level FlightAware
10:21AM 65.0480 -31.8280 273° West 423 487 34,000  Level FlightAware
10:22AM 65.0510 -31.9740 273° West 423 487 34,000  Level FlightAware
10:22AM 65.0540 -32.1160 273° West 423 487 34,000  Level FlightAware
10:23AM 65.0580 -32.3050 273° West 423 487 34,000  Level FlightAware
10:24AM 65.0610 -32.4470 273° West 423 487 34,000  Level FlightAware
10:24AM 65.0640 -32.5880 273° West 423 487 34,000  Level FlightAware
10:25AM 65.0690 -32.7780 274° West 423 487 34,000  Level FlightAware
10:26AM 65.0720 -32.9270 273° West 423 487 34,000  Level FlightAware
10:27AM 65.0760 -33.1170 273° West 423 487 34,000  Level FlightAware
10:27AM 65.0780 -33.2110 273° West 423 487 34,000  Level FlightAware
10:30AM 64.9701 -33.8720 249° West  Level FlightAware Approximate
10:31AM 64.9246 -34.1439 249° West  Level FlightAware Approximate
10:32AM 64.8786 -34.4150 248° West  Level FlightAware Approximate
10:33AM 64.8321 -34.6850 248° West  Level FlightAware Approximate
10:34AM 64.7851 -34.9542 248° West  Level FlightAware Approximate
10:35AM 64.7377 -35.2224 248° West  Level FlightAware Approximate
10:36AM 64.6898 -35.4897 247° West  Level FlightAware Approximate
10:37AM 64.6413 -35.7560 247° West  Level FlightAware Approximate
10:38AM 64.5924 -36.0213 247° West  Level FlightAware Approximate
10:39AM 64.5431 -36.2857 247° West  Level FlightAware Approximate
10:40AM 64.4932 -36.5492 246° West  Level FlightAware Approximate
10:41AM 64.4429 -36.8116 246° West  Level FlightAware Approximate
10:42AM 64.3921 -37.0732 246° West  Level FlightAware Approximate
10:43AM 64.3409 -37.3337 246° West  Level FlightAware Approximate
10:44AM 64.2892 -37.5933 245° Southwest  Level FlightAware Approximate
10:45AM 64.2370 -37.8519 245° Southwest  Level FlightAware Approximate
10:46AM 64.1849 -38.1132 246° West  Level FlightAware Approximate
10:47AM 64.1351 -38.3734 246° West  Level FlightAware Approximate
10:48AM 64.0849 -38.6325 246° West  Level FlightAware Approximate
10:49AM 64.0342 -38.8908 246° West  Level FlightAware Approximate
10:50AM 63.9831 -39.1481 246° West  Level FlightAware Approximate
10:51AM 63.9315 -39.4045 245° Southwest  Level FlightAware Approximate
10:52AM 63.8794 -39.6599 245° Southwest  Level FlightAware Approximate
10:53AM 63.8269 -39.9144 245° Southwest  Level FlightAware Approximate
10:54AM 63.7740 -40.1679 245° Southwest  Level FlightAware Approximate
10:55AM 63.7206 -40.4205 245° Southwest  Level FlightAware Approximate
10:56AM 63.6668 -40.6721 244° Southwest  Level FlightAware Approximate
10:57AM 63.6125 -40.9228 244° Southwest  Level FlightAware Approximate
10:58AM 63.5578 -41.1725 244° Southwest  Level FlightAware Approximate
10:59AM 63.5027 -41.4212 244° Southwest  Level FlightAware Approximate
11:00AM 63.4472 -41.6690 243° Southwest  Level FlightAware Approximate
11:01AM 63.3912 -41.9158 243° Southwest  Level FlightAware Approximate
11:02AM 63.3348 -42.1617 243° Southwest  Level FlightAware Approximate
11:03AM 63.2780 -42.4066 243° Southwest  Level FlightAware Approximate
11:04AM 63.2207 -42.6505 243° Southwest  Level FlightAware Approximate
11:05AM 63.1631 -42.8934 242° Southwest  Level FlightAware Approximate
11:06AM 63.1050 -43.1354 242° Southwest  Level FlightAware Approximate
11:07AM 63.0465 -43.3764 242° Southwest  Level FlightAware Approximate
11:08AM 62.9876 -43.6165 242° Southwest  Level FlightAware Approximate
11:09AM 62.9283 -43.8556 241° Southwest  Level FlightAware Approximate
11:10AM 62.8686 -44.0937 241° Southwest  Level FlightAware Approximate
11:11AM 62.8085 -44.3308 241° Southwest  Level FlightAware Approximate
11:12AM 62.7480 -44.5670 241° Southwest  Level FlightAware Approximate
11:13AM 62.6871 -44.8022 241° Southwest  Level FlightAware Approximate
11:14AM 62.6259 -45.0364 240° Southwest  Level FlightAware Approximate
11:15AM 62.5642 -45.2697 240° Southwest  Level FlightAware Approximate
11:16AM 62.5021 -45.5020 240° Southwest  Level FlightAware Approximate
11:17AM 62.4397 -45.7333 240° Southwest  Level FlightAware Approximate
11:18AM 62.3769 -45.9637 240° Southwest  Level FlightAware Approximate
11:19AM 62.3137 -46.1931 239° Southwest  Level FlightAware Approximate
11:20AM 62.2501 -46.4215 239° Southwest  Level FlightAware Approximate
11:21AM 62.1861 -46.6489 239° Southwest  Level FlightAware Approximate
11:22AM 62.1218 -46.8755 239° Southwest  Level FlightAware Approximate
11:23AM 62.0571 -47.1010 239° Southwest  Level FlightAware Approximate
11:24AM 61.9922 -47.3258 238° Southwest  Level FlightAware Approximate
11:25AM 61.9270 -47.5497 238° Southwest  Level FlightAware Approximate
11:26AM 61.8614 -47.7726 238° Southwest  Level FlightAware Approximate
11:27AM 61.7955 -47.9946 238° Southwest  Level FlightAware Approximate
11:28AM 61.7292 -48.2157 238° Southwest  Level FlightAware Approximate
11:29AM 61.6626 -48.4358 238° Southwest  Level FlightAware Approximate
11:30AM 61.5956 -48.6549 237° Southwest  Level FlightAware Approximate
11:31AM 61.5283 -48.8731 237° Southwest  Level FlightAware Approximate
11:31AM 63.9380 -50.4010 237° Southwest 429 494 34,000  Level FlightAware
11:32AM 63.8920 -50.6940 250° West 430 495 34,000  Level FlightAware
11:32AM 63.8680 -50.8430 250° West 429 494 34,000  Level FlightAware
11:33AM 63.8480 -50.9630 249° West 430 495 34,000  Level FlightAware
11:33AM 63.8250 -51.1070 250° West 430 495 34,000  Level FlightAware
11:35AM 63.7780 -51.3930 250° West 432 497 34,000  Level FlightAware
11:35AM 63.7490 -51.5700 250° West 432 497 34,000  Level FlightAware
11:36AM 63.7280 -51.6970 250° West 432 497 34,000  Level FlightAware
11:36AM 63.6990 -51.8650 249° West 431 496 34,000  Level FlightAware
11:37AM 63.6680 -52.0470 249° West 431 496 34,000  Level FlightAware
11:38AM 63.6450 -52.1820 249° West 432 497 34,000  Level FlightAware
11:38AM 63.6140 -52.3600 249° West 432 497 34,000  Level FlightAware
11:39AM 63.5820 -52.5470 249° West 433 498 34,000  Level FlightAware
11:40AM 63.5470 -52.7420 248° West 434 499 34,000  Level FlightAware
11:40AM 63.5220 -52.8850 249° West 433 498 34,000  Level FlightAware
11:41AM 63.4920 -53.0500 248° West 434 499 34,000  Level FlightAware
11:42AM 63.4630 -53.2100 248° West 434 499 34,000  Level FlightAware
11:42AM 63.4350 -53.3660 248° West 435 501 34,000  Level FlightAware
11:43AM 63.4010 -53.5510 248° West 436 502 34,000  Level FlightAware
11:44AM 63.3730 -53.6990 247° West 436 502 34,000  Level FlightAware
11:45AM 63.3350 -53.9010 247° West 437 503 34,000  Level FlightAware
11:45AM 63.3100 -54.0320 247° West 437 503 34,000  Level FlightAware
11:46AM 63.2860 -54.1580 247° West 437 503 34,000  Level FlightAware
11:46AM 63.2620 -54.2850 247° West 437 503 34,000  Level FlightAware
11:47AM 63.2300 -54.4540 247° West 437 503 34,000  Level FlightAware
11:48AM 63.2050 -54.5800 246° West 437 503 34,000  Level FlightAware
11:49AM 63.1720 -54.7550 247° West 437 503 34,000  Level FlightAware
11:49AM 63.1400 -54.9230 247° West 437 503 34,000  Level FlightAware
11:50AM 63.1230 -55.0070 246° West 437 503 34,000  Level FlightAware
11:50AM 63.0990 -55.1330 247° West 437 503 34,000  Level FlightAware
11:51AM 63.0740 -55.2630 247° West 437 503 34,000  Level FlightAware
11:52AM 63.0500 -55.3880 247° West 437 503 34,000  Level FlightAware
11:52AM 63.0250 -55.5170 247° West 437 503 34,000  Level FlightAware
11:53AM 63.0010 -55.6430 247° West 437 503 34,000  Level FlightAware
11:54AM 62.9680 -55.8140 247° West 437 503 34,000  Level FlightAware
11:54AM 62.9440 -55.9390 247° West 437 503 34,000  Level FlightAware
11:54AM 62.9360 -55.9800 247° West 437 503 34,000  Level FlightAware
11:58AM 62.7757 -56.7243 245° Southwest  Level FlightAware Approximate
11:59AM 62.7220 -56.9679 244° Southwest  Level FlightAware Approximate
12:00PM 62.6678 -57.2106 244° Southwest  Level FlightAware Approximate
12:01PM 62.6133 -57.4524 244° Southwest  Level FlightAware Approximate
12:02PM 62.5583 -57.6934 244° Southwest  Level FlightAware Approximate
12:03PM 62.5029 -57.9334 244° Southwest  Level FlightAware Approximate
12:04PM 62.4471 -58.1725 243° Southwest  Level FlightAware Approximate
12:05PM 62.3909 -58.4108 243° Southwest  Level FlightAware Approximate
12:06PM 62.3343 -58.6481 243° Southwest  Level FlightAware Approximate
12:07PM 62.2773 -58.8846 243° Southwest  Level FlightAware Approximate
12:07PM 62.2333 -59.1500 242° Southwest 290 334 34,000  Level Gander Center
12:08PM 62.2199 -59.1202 242° Southwest  Level FlightAware Approximate
12:08PM 62.1667 -59.3333 232° Southwest 420 483 34,000  Level Gander Center
12:09PM 62.1621 -59.3548 242° Southwest  Level FlightAware Approximate
12:09PM 62.1000 -59.5833 240° Southwest 450 518 34,600  Level Gander Center
12:10PM 62.1039 -59.5886 242° Southwest  Level FlightAware Approximate
12:10PM 62.0167 -59.8000 231° Southwest 450 518 35,600  Level Gander Center
12:11PM 62.0453 -59.8214 242° Southwest  Level FlightAware Approximate
12:11PM 61.9500 -60.0167 237° Southwest 440 506 36,000  Level Gander Center
12:12PM 61.8833 -60.2333 237° Southwest 440 506 36,000  Level Gander Center
12:13PM 61.8167 -60.4333 235° Southwest 440 506 36,000  Level Gander Center
12:14PM 61.7667 -60.6500 244° Southwest 440 506 36,000  Level Gander Center
12:15PM 61.6833 -60.8667 231° Southwest 440 506 36,000  Level Gander Center
12:16PM 61.6167 -61.0667 235° Southwest 440 506 36,000  Level Gander Center
12:17PM 61.5500 -61.2833 237° Southwest 440 506 36,000  Level Gander Center
12:18PM 61.4667 -61.4833 229° Southwest 440 506 36,000  Level Gander Center
12:19PM 61.4000 -61.7000 237° Southwest 450 518 36,000  Level Gander Center
12:20PM 61.3333 -61.9000 235° Southwest 450 518 36,000  Level Gander Center
12:21PM 61.2500 -62.1167 231° Southwest 440 506 36,000  Level Gander Center
12:22PM 61.1833 -62.3167 235° Southwest 440 506 36,000  Level Gander Center
12:23PM 61.1167 -62.5167 235° Southwest 450 518 36,000  Level Gander Center
12:24PM 61.0167 -62.7167 224° Southwest 440 506 36,000  Level Gander Center
12:25PM 60.9500 -62.9667 241° Southwest 450 518 36,000  Level Gander Center
12:26PM 60.8833 -63.1667 236° Southwest 430 495 36,000  Level Gander Center
12:27PM 60.8000 -63.3667 230° Southwest 440 506 36,000  Level Gander Center
12:28PM 60.7333 -63.5333 231° Southwest 440 506 36,000  Level Gander Center
12:29PM 60.6667 -63.7500 238° Southwest 440 506 36,000  Level Gander Center
12:30PM 60.5833 -63.9500 230° Southwest 440 506 36,000  Level Gander Center
12:31PM 60.5000 -64.1167 225° Southwest 440 506 36,000  Level Gander Center
12:32PM 60.4333 -64.3167 236° Southwest 440 506 36,000  Level Gander Center
12:33PM 60.3667 -64.5167 236° Southwest 440 506 36,000  Level Gander Center
12:34PM 60.2833 -64.7000 228° Southwest 430 495 36,000  Level Gander Center
12:35PM 60.2167 -64.9000 236° Southwest 440 506 36,000  Level Gander Center
12:36PM 60.1333 -65.0833 228° Southwest 430 495 36,000  Level Gander Center
12:37PM 60.0667 -65.2500 231° Southwest 430 495 36,000  Level Gander Center
12:38PM 59.9500 -65.4000 213° Southwest 430 495 36,000  Level Gander Center
12:39PM 59.8667 -65.5667 225° Southwest 430 495 36,000  Level Gander Center
12:40PM 59.7833 -65.7167 222° Southwest 430 495 36,000  Level Gander Center
12:41PM 59.6833 -65.9000 223° Southwest 430 495 36,000  Level Gander Center
12:42PM 59.6000 -66.0500 222° Southwest 430 495 36,000  Level Gander Center
12:43PM 59.5167 -66.2000 222° Southwest 430 495 36,000  Level Gander Center
12:44PM 59.4000 -66.3500 213° Southwest 430 495 36,000  Level Gander Center
12:45PM 59.3167 -66.5000 223° Southwest 430 495 36,000  Level Gander Center
12:46PM 59.2333 -66.6500 223° Southwest 430 495 36,000  Level Gander Center
12:47PM 59.1333 -66.8000 218° Southwest 430 495 36,000  Level Gander Center
12:48PM 59.0500 -66.9500 223° Southwest 430 495 36,000  Level Gander Center
12:49PM 58.9667 -67.1000 223° Southwest 430 495 36,000  Level Gander Center
12:50PM 58.8667 -67.2500 218° Southwest 430 495 36,000  Level Gander Center
12:51PM 58.7833 -67.4000 223° Southwest 430 495 36,000  Level Gander Center
12:52PM 58.6833 -67.5333 215° Southwest 430 495 36,000  Level Gander Center
12:53PM 58.6000 -67.6833 223° Southwest 430 495 36,000  Level Gander Center
12:54PM 58.5167 -67.8333 223° Southwest 430 495 36,000  Level Gander Center
12:55PM 58.4167 -67.9667 215° Southwest 430 495 36,000  Level Gander Center
12:56PM 58.3167 -68.1167 218° Southwest 430 495 36,000  Level Gander Center
12:57PM 58.2167 -68.2500 215° Southwest 430 495 36,000  Level Gander Center
12:58PM 58.1500 -68.4000 230° Southwest 450 518 36,000  Level Gander Center
12:58PM 58.0667 -68.4833 208° Southwest 460 529 36,000  Level Gander Center
12:59PM 57.9833 -68.6167 220° Southwest 440 506 36,000  Level Gander Center
01:00PM 57.8833 -68.7500 215° Southwest 430 495 36,000  Level Gander Center
01:01PM 57.7833 -68.9000 219° Southwest 430 495 36,000  Level Gander Center
01:02PM 57.7000 -69.0000 213° Southwest 430 495 36,000  Level Gander Center
01:03PM 57.5833 -69.1333 212° Southwest 430 495 36,000  Level Gander Center
01:04PM 57.5000 -69.2667 221° Southwest 430 495 36,000  Level Gander Center
01:05PM 57.4000 -69.4000 216° Southwest 430 495 36,000  Level Gander Center
01:06PM 57.3000 -69.5333 216° Southwest 430 495 36,000  Level Gander Center
01:07PM 57.2000 -69.6667 216° Southwest 430 495 36,000  Level Gander Center
01:08PM 57.0833 -69.8000 212° Southwest 430 495 36,000  Level Gander Center
01:09PM 57.0000 -69.9000 213° Southwest 430 495 36,000  Level Gander Center
01:10PM 56.9000 -70.0333 216° Southwest 430 495 36,000  Level Gander Center
01:11PM 56.8167 -70.1667 221° Southwest 430 495 36,000  Level Gander Center
01:12PM 56.7000 -70.3000 212° Southwest 430 495 36,000  Level Gander Center
01:13PM 56.6167 -70.4333 221° Southwest 430 495 36,000  Level Gander Center
01:14PM 56.5167 -70.5333 209° Southwest 430 495 36,000  Level Gander Center
01:15PM 56.4167 -70.6500 213° Southwest 430 495 36,000  Level Gander Center
01:16PM 56.3167 -70.7833 217° Southwest 430 495 36,000  Level Gander Center
01:17PM 56.2167 -70.8833 209° Southwest 430 495 36,000  Level Gander Center
01:18PM 56.1167 -71.0000 213° Southwest 430 495 36,000  Level Gander Center
01:19PM 56.0167 -71.1333 217° Southwest 430 495 36,000  Level Gander Center
01:20PM 55.9167 -71.2500 213° Southwest 430 495 36,000  Level Gander Center
01:21PM 55.8167 -71.3833 217° Southwest 430 495 36,000  Level Gander Center
01:22PM 55.7167 -71.4833 209° Southwest 430 495 36,000  Level Gander Center
01:23PM 55.6333 -71.6000 218° Southwest 420 483 36,000  Level Gander Center
01:24PM 55.5333 -71.7333 217° Southwest 420 483 36,000  Level Gander Center
01:25PM 55.4333 -71.8167 205° Southwest 420 483 36,000  Level Gander Center
01:26PM 55.3333 -71.9333 214° Southwest 430 495 36,000  Level Gander Center
01:27PM 55.2167 -72.0667 213° Southwest 430 495 36,000  Level Gander Center
01:28PM 55.1333 -72.1833 219° Southwest 420 483 36,000  Level Gander Center
01:29PM 55.0333 -72.3000 214° Southwest 430 495 36,000  Level Gander Center
01:30PM 54.9333 -72.4000 210° Southwest 430 495 36,000  Level Gander Center
01:31PM 54.8333 -72.5167 214° Southwest 420 483 36,000  Level Gander Center
01:32PM 54.7333 -72.6333 214° Southwest 430 495 36,000  Level Gander Center
01:33PM 54.6333 -72.7167 206° Southwest 420 483 36,000  Level Gander Center
01:34PM 54.5500 -72.8333 219° Southwest 420 483 36,000  Level Gander Center
01:35PM 54.4500 -72.9667 218° Southwest 420 483 36,000  Level Gander Center
01:36PM 54.3333 -73.0500 203° Southwest 420 483 36,000  Level Gander Center
01:37PM 54.2500 -73.1667 219° Southwest 420 483 36,000  Level Gander Center
01:38PM 54.1500 -73.2833 214° Southwest 420 483 36,000  Level Gander Center
01:39PM 54.0333 -73.3833 207° Southwest 420 483 36,000  Level Gander Center
01:40PM 53.9333 -73.4833 210° Southwest 420 483 36,000  Level Gander Center
01:41PM 53.8500 -73.6000 220° Southwest 420 483 36,000  Level Gander Center
01:42PM 53.7500 -73.7000 211° Southwest 420 483 36,000  Level Gander Center
01:43PM 53.6333 -73.7833 203° Southwest 420 483 36,000  Level Gander Center
01:44PM 53.5500 -73.8667 211° Southwest 420 483 36,000  Level Gander Center
01:45PM 53.4333 -73.9500 203° Southwest 420 483 36,000  Level Gander Center
01:46PM 53.3167 -74.0667 211° Southwest 420 483 36,000  Level Gander Center
01:47PM 53.2333 -74.1500 211° Southwest 420 483 36,000  Level Gander Center
01:48PM 53.1167 -74.2333 203° Southwest 420 483 36,000  Level Gander Center
01:49PM 53.0333 -74.3167 211° Southwest 430 495 36,000  Level Gander Center
01:50PM 52.9167 -74.4167 207° Southwest 430 495 36,000  Level Gander Center
01:51PM 52.8000 -74.5000 203° Southwest 430 495 36,000  Level Gander Center
01:52PM 52.7000 -74.5833 207° Southwest 430 495 36,000  Level Gander Center
01:53PM 52.5833 -74.6833 208° Southwest 430 495 36,000  Level Gander Center
01:54PM 52.4833 -74.7667 207° Southwest 430 495 36,000  Level Gander Center
01:55PM 52.3667 -74.8333 199° South 430 495 36,000  Level Gander Center
01:56PM 52.2667 -74.9167 207° Southwest 430 495 36,000  Level Gander Center
01:57PM 52.1500 -75.0167 208° Southwest 440 506 36,000  Level Gander Center
01:58PM 52.0500 -75.1000 207° Southwest 430 495 36,000  Level Gander Center
01:59PM 51.9500 -75.1833 207° Southwest 430 495 36,000  Level Gander Center
02:00PM 51.8333 -75.2500 199° South 430 495 36,000  Level Gander Center
02:01PM 51.7333 -75.3500 212° Southwest 430 495 36,000  Level Gander Center
02:03PM 51.6000 -75.4000 193° South 420 483 36,000  Level Montreal Center
02:04PM 51.5000 -75.4833 207° Southwest 420 483 36,000  Level Montreal Center
02:05PM 51.3833 -75.5667 204° Southwest 420 483 36,000  Level Montreal Center
02:06PM 51.2833 -75.6500 208° Southwest 430 495 36,000  Level Montreal Center
02:07PM 51.1667 -75.7167 200° South 430 495 36,000  Level Montreal Center
02:08PM 51.0667 -75.8000 208° Southwest 420 483 36,000  Level Montreal Center
02:09PM 50.9500 -75.8833 204° Southwest 430 495 36,000  Level Montreal Center
02:10PM 50.8500 -75.9667 208° Southwest 430 495 36,000  Level Montreal Center
02:11PM 50.7333 -76.0500 204° Southwest 430 495 36,000  Level Montreal Center
02:12PM 50.6333 -76.1167 203° Southwest 430 495 36,000  Level Montreal Center
02:13PM 50.5167 -76.2000 204° Southwest 430 495 36,000  Level Montreal Center
02:14PM 50.4167 -76.2833 208° Southwest 430 495 36,000  Level Montreal Center
02:15PM 50.3167 -76.3667 208° Southwest 430 495 36,000  Level Montreal Center
02:16PM 50.2000 -76.4333 200° South 430 495 36,000  Level Montreal Center
02:17PM 50.0833 -76.5167 205° Southwest 430 495 36,000  Level Montreal Center
02:18PM 49.9667 -76.6000 205° Southwest 430 495 36,000  Level Montreal Center
02:19PM 49.8667 -76.6667 203° Southwest 430 495 36,000  Level Montreal Center
02:20PM 49.7500 -76.7500 205° Southwest 430 495 36,000  Level Montreal Center
02:21PM 49.6333 -76.8167 200° South 440 506 36,000  Level Montreal Center
02:23PM 49.4167 -76.9667 204° Southwest 450 518 36,000  Level Montreal Center
02:24PM 49.3000 -77.0500 205° Southwest 440 506 36,000  Level Montreal Center
02:25PM 49.2000 -77.1167 204° Southwest 420 483 36,000  Level Montreal Center
02:26PM 49.1000 -77.2000 209° Southwest 440 506 36,000  Level Montreal Center
02:27PM 48.9833 -77.3000 209° Southwest 440 506 36,000  Level Montreal Center
02:28PM 48.8500 -77.3667 198° South 440 506 36,000  Level Montreal Center
02:29PM 48.7500 -77.4500 209° Southwest 440 506 36,000  Level Montreal Center
02:30PM 48.6333 -77.5167 201° Southwest 440 506 36,000  Level Montreal Center
02:35PM 48.0620 -77.8870 201° Southwest 448 516 36,000  Level FlightAware
02:35PM 47.9870 -77.9300 201° Southwest 447 514 36,000  Level FlightAware
02:36PM 47.9200 -77.9690 201° Southwest 448 516 36,000  Level FlightAware
02:37PM 47.8580 -78.0050 201° Southwest 448 516 36,000  Level FlightAware
02:37PM 47.8020 -78.0370 201° Southwest 448 516 36,000  Level FlightAware
02:38PM 47.7140 -78.0900 202° Southwest 453 521 36,000  Level FlightAware
02:38PM 47.6320 -78.1370 201° Southwest 455 524 36,000  Level FlightAware
02:39PM 47.5620 -78.1770 201° Southwest 456 525 36,000  Level FlightAware
02:39PM 47.4980 -78.2140 201° Southwest 458 527 36,000  Level FlightAware
02:40PM 47.4250 -78.2560 201° Southwest 460 529 36,000  Level FlightAware
02:41PM 47.3210 -78.3150 201° Southwest 463 533 36,000  Level FlightAware
02:42PM 47.2320 -78.3650 201° Southwest 464 534 36,000  Level FlightAware
02:42PM 47.1480 -78.4130 201° Southwest 465 535 36,000  Level FlightAware
02:44PM 47.0000 -78.4970 201° Southwest 465 535 36,000  Level FlightAware
02:44PM 46.9440 -78.5280 201° Southwest 465 535 36,000  Level FlightAware
02:45PM 46.7880 -78.6150 201° Southwest 465 535 36,000  Level FlightAware
02:47PM 46.6510 -78.6910 201° Southwest 467 537 36,000  Level FlightAware
02:47PM 46.5820 -78.7300 201° Southwest 468 539 36,000  Level FlightAware
02:48PM 46.5070 -78.7710 201° Southwest 468 539 36,000  Level FlightAware
02:48PM 46.4300 -78.8130 201° Southwest 469 540 36,000  Level FlightAware
02:49PM 46.3570 -78.8540 201° Southwest 470 541 36,000  Level FlightAware
02:50PM 46.2380 -78.9180 200° South 473 544 36,000  Level FlightAware
02:51PM 46.1520 -78.9650 201° Southwest 475 547 36,000  Level FlightAware
02:51PM 46.0770 -79.0060 201° Southwest 477 549 36,000  Level FlightAware
02:52PM 45.9870 -79.0540 200° South 477 549 36,000  Level FlightAware
02:52PM 45.9210 -79.0900 201° Southwest 478 550 36,000  Level FlightAware
02:53PM 45.8460 -79.1310 201° Southwest 478 550 36,000  Level FlightAware
02:54PM 45.7800 -79.1660 200° South 479 551 36,000  Level FlightAware
02:54PM 45.7010 -79.2080 200° South 481 554 36,000  Level FlightAware
02:55PM 45.5430 -79.2920 200° South 481 554 36,000  Level FlightAware
02:56PM 45.4600 -79.3360 200° South 481 554 36,000  Level FlightAware
02:57PM 45.3930 -79.3710 200° South 480 552 36,000  Level FlightAware
02:57PM 45.2990 -79.4210 201° Southwest 479 551 36,000  Level FlightAware
02:58PM 45.2300 -79.4570 200° South 478 550 36,000  Level FlightAware
02:59PM 45.1230 -79.5130 200° South 477 549 36,000  Level FlightAware
02:59PM 45.0470 -79.5530 200° South 476 548 36,000  Level FlightAware
03:00PM 44.9720 -79.5920 200° South 476 548 36,000  Level FlightAware
03:01PM 44.9050 -79.6270 200° South 475 547 36,000  Level FlightAware
03:01PM 44.8480 -79.6560 200° South 477 549 36,000  Level FlightAware
03:02PM 44.7710 -79.6960 200° South 478 550 36,000  Level FlightAware
03:02PM 44.6740 -79.7460 200° South 481 554 36,000  Level FlightAware
03:03PM 44.5910 -79.7920 202° Southwest 471 542 36,000  Level FlightAware
03:04PM 44.5370 -79.8330 208° Southwest 459 528 36,000  Level FlightAware
03:05PM 44.4290 -79.9300 213° Southwest 457 526 36,000  Level FlightAware
03:05PM 44.3690 -79.9850 213° Southwest 456 525 36,000  Level FlightAware
03:07PM 44.2300 -80.1090 213° Southwest 458 527 36,000  Level FlightAware
03:08PM 44.1120 -80.2150 213° Southwest 458 527 36,000  Level FlightAware
03:08PM 44.0600 -80.2600 212° Southwest 459 528 36,000  Level FlightAware
03:09PM 43.9940 -80.3200 213° Southwest 459 528 36,000  Level FlightAware
03:09PM 43.9320 -80.3740 212° Southwest 457 526 36,000  Level FlightAware
03:10PM 43.8780 -80.4220 213° Southwest 457 526 36,000  Level FlightAware
03:10PM 43.8080 -80.4830 212° Southwest 456 525 36,000  Level FlightAware
03:11PM 43.7320 -80.5500 213° Southwest 455 524 36,000  Level FlightAware
03:11PM 43.7280 -80.5530 208° Southwest 455 524 36,000  Level FlightAware
03:12PM 43.6180 -80.6490 212° Southwest 455 524 36,000  Level FlightAware
03:13PM 43.5500 -80.7090 213° Southwest 456 525 36,000  Level FlightAware
03:14PM 43.4660 -80.7810 212° Southwest 455 524 36,000  Level FlightAware
03:14PM 43.3850 -80.8510 212° Southwest 455 524 36,000  Level FlightAware
03:15PM 43.3200 -80.9070 212° Southwest 454 522 36,000  Level FlightAware
03:16PM 43.2390 -80.9770 212° Southwest 452 520 36,000  Level FlightAware
03:16PM 43.1830 -81.0250 212° Southwest 452 520 36,000  Level FlightAware
03:17PM 43.1080 -81.0890 212° Southwest 454 522 36,000  Level FlightAware
03:18PM 43.0440 -81.1420 211° Southwest 459 528 36,000  Level FlightAware
03:18PM 42.9730 -81.1900 206° Southwest 468 539 36,000  Level FlightAware
03:19PM 42.8940 -81.2380 204° Southwest 469 540 36,000  Level FlightAware
03:19PM 42.8300 -81.2780 205° Southwest 470 541 36,000  Level FlightAware
03:20PM 42.7560 -81.3230 204° Southwest 471 542 36,000  Level FlightAware
03:21PM 42.6930 -81.3610 204° Southwest 471 542 36,000  Level FlightAware
03:21PM 42.5920 -81.4230 204° Southwest 473 544 36,000  Level FlightAware
03:22PM 42.5050 -81.4770 205° Southwest 475 547 36,000  Level FlightAware
03:23PM 42.4370 -81.5180 204° Southwest 475 547 36,000  Level FlightAware
03:24PM 42.3180 -81.5900 204° Southwest 475 547 36,000  Level FlightAware
03:24PM 42.2600 -81.6250 204° Southwest 474 545 36,000  Level FlightAware
03:25PM 42.1790 -81.6740 204° Southwest 474 545 36,000  Level FlightAware
03:25PM 42.1060 -81.7180 204° Southwest 474 545 36,000  Level FlightAware
03:26PM 42.0400 -81.7580 204° Southwest 474 545 36,000  Level FlightAware
03:27PM 41.9420 -81.8160 204° Southwest 474 545 36,000  Level FlightAware
03:27PM 41.8650 -81.8620 204° Southwest 473 544 36,000  Level FlightAware
03:28PM 41.7940 -81.9050 204° Southwest 471 542 36,000  Level FlightAware
03:29PM 41.7320 -81.9410 203° Southwest 471 542 36,000  Level FlightAware
03:29PM 41.6300 -82.0020 204° Southwest 469 540 36,000  Level FlightAware
03:30PM 41.5130 -82.0710 204° Southwest 469 540 36,000  Level FlightAware
03:31PM 41.4330 -82.1180 204° Southwest 468 539 36,000  Level FlightAware
03:32PM 41.3510 -82.1620 202° Southwest 475 547 36,000  Level FlightAware
03:32PM 41.2880 -82.1870 197° South 479 551 36,000  Level FlightAware
03:33PM 41.1860 -82.2240 195° South 481 554 36,000  Level FlightAware
03:34PM 41.0600 -82.2680 195° South 480 552 36,000  Level FlightAware
03:35PM 40.9760 -82.2980 195° South 480 552 36,000  Level FlightAware
03:35PM 40.9060 -82.3230 195° South 480 552 36,000  Level FlightAware
03:36PM 40.8170 -82.3550 195° South 480 552 36,000  Level FlightAware
03:37PM 40.7320 -82.3710 188° South 489 563 36,000  Level FlightAware
03:37PM 40.6610 -82.3830 187° South 487 560 36,000  Level FlightAware
03:38PM 40.5740 -82.3960 186° South 490 564 36,000  Level FlightAware
03:38PM 40.4940 -82.4060 185° South 489 563 36,000  Level FlightAware
03:39PM 40.3830 -82.4200 185° South 488 562 36,000  Level FlightAware
03:40PM 40.2470 -82.4380 186° South 487 560 36,000  Level FlightAware
03:41PM 40.1650 -82.4490 186° South 486 559 36,000  Level FlightAware
03:41PM 40.0850 -82.4600 186° South 486 559 36,000  Level FlightAware
03:42PM 40.0150 -82.4690 186° South 485 558 36,000  Level FlightAware
03:43PM 39.9260 -82.4800 185° South 485 558 36,000  Level FlightAware
03:43PM 39.8610 -82.4890 186° South 485 558 36,000  Level FlightAware
03:44PM 39.7770 -82.5000 186° South 485 558 36,000  Level FlightAware
03:44PM 39.6810 -82.5120 185° South 485 558 36,000  Level FlightAware
03:45PM 39.6120 -82.5210 186° South 484 557 36,000  Level FlightAware
03:46PM 39.5230 -82.5320 185° South 484 557 36,000  Level FlightAware
03:46PM 39.4370 -82.5430 186° South 483 556 36,000  Level FlightAware
03:47PM 39.3570 -82.5530 186° South 482 555 36,000  Level FlightAware
03:47PM 39.2790 -82.5630 186° South 481 554 36,000  Level FlightAware
03:48PM 39.1810 -82.5760 186° South 480 552 36,000  Level FlightAware
03:49PM 39.1130 -82.5840 185° South 480 552 36,000  Level FlightAware
03:49PM 39.0450 -82.5930 186° South 478 550 36,000  Level FlightAware
03:50PM 38.9660 -82.6030 186° South 477 549 36,000  Level FlightAware
03:50PM 38.8850 -82.6130 185° South 477 549 36,000  Level FlightAware
03:51PM 38.8370 -82.6190 186° South 477 549 36,000  Level FlightAware
03:51PM 38.7420 -82.6310 186° South 477 549 36,000  Level FlightAware
03:52PM 38.6630 -82.6400 185° South 477 549 36,000  Level FlightAware
03:53PM 38.5790 -82.6510 186° South 478 550 36,000  Level FlightAware
03:53PM 38.4880 -82.6610 185° South 478 550 36,000  Level FlightAware
03:54PM 38.3750 -82.6760 186° South 479 551 36,000  Level FlightAware
03:55PM 38.2530 -82.6910 186° South 480 552 36,000  Level FlightAware
03:56PM 38.1351 -82.7057 186° South 480 552 36,000  Level FlightAware ADS-B
03:57PM 38.0638 -82.7144 185° South 480 552 36,000  Level FlightAware ADS-B
03:57PM 37.9970 -82.7226 186° South 480 552 36,000  Level FlightAware ADS-B
03:58PM 37.9279 -82.7310 185° South 480 552 36,000  Level FlightAware ADS-B
03:58PM 37.8575 -82.7396 186° South 481 554 36,000  Level FlightAware ADS-B
03:59PM 37.7788 -82.7491 185° South 480 552 36,000  Level FlightAware ADS-B
03:59PM 37.7002 -82.7590 186° South 480 552 36,000  Level FlightAware ADS-B
04:00PM 37.6544 -82.7727 193° South 474 545 36,000  Level FlightAware ADS-B
04:00PM 37.6425 -82.7780 199° South 472 543 36,000  Level FlightAware ADS-B
04:01PM 37.5466 -82.8364 206° Southwest 467 537 36,000  Level FlightAware ADS-B
04:01PM 37.4838 -82.8782 208° Southwest 465 535 36,000  Level FlightAware ADS-B
04:02PM 37.4117 -82.9264 208° Southwest 464 534 36,000  Level FlightAware ADS-B
04:03PM 37.3227 -82.9851 208° Southwest 464 534 36,000  Level FlightAware ADS-B
04:03PM 37.2658 -83.0225 208° Southwest 463 533 36,000  Level FlightAware ADS-B
04:04PM 37.2024 -83.0638 207° Southwest 462 532 36,000  Level FlightAware ADS-B
04:04PM 37.1404 -83.1042 207° Southwest 459 528 36,000  Level FlightAware ADS-B
04:05PM 37.0768 -83.1455 207° Southwest 458 527 36,000  Level FlightAware ADS-B
04:05PM 37.0198 -83.1825 207° Southwest 455 524 36,000  Level FlightAware ADS-B
04:06PM 36.9636 -83.2190 207° Southwest 453 521 36,000  Level FlightAware ADS-B
04:06PM 36.9068 -83.2556 207° Southwest 451 519 36,000  Level FlightAware ADS-B
04:07PM 36.8487 -83.2932 207° Southwest 450 518 36,000  Level FlightAware ADS-B
04:07PM 36.7930 -83.3292 207° Southwest 449 517 36,000  Level FlightAware ADS-B
04:08PM 36.7371 -83.3653 207° Southwest 446 513 36,000  Level FlightAware ADS-B
04:08PM 36.6803 -83.4020 207° Southwest 446 513 36,000  Level FlightAware ADS-B
04:09PM 36.6242 -83.4378 207° Southwest 446 513 36,000  Level FlightAware ADS-B
04:09PM 36.5689 -83.4733 207° Southwest 445 512 36,000  Level FlightAware ADS-B
04:10PM 36.5133 -83.5087 207° Southwest 444 511 36,000  Level FlightAware ADS-B
04:10PM 36.4590 -83.5435 207° Southwest 444 511 36,000  Level FlightAware ADS-B
04:11PM 36.4021 -83.5799 207° Southwest 443 510 36,000  Level FlightAware ADS-B
04:11PM 36.3462 -83.6154 207° Southwest 444 511 36,000  Level FlightAware ADS-B
04:12PM 36.2893 -83.6517 207° Southwest 444 511 36,000  Level FlightAware ADS-B
04:12PM 36.2254 -83.6923 207° Southwest 444 511 36,000  Level FlightAware ADS-B
04:13PM 36.1640 -83.7311 207° Southwest 444 511 36,000  Level FlightAware ADS-B
04:13PM 36.1088 -83.7660 207° Southwest 444 511 36,000  Level FlightAware ADS-B
04:14PM 36.0510 -83.8026 207° Southwest 444 511 36,000  Level FlightAware ADS-B
04:15PM 35.9913 -83.8402 207° Southwest 444 511 36,000  Level FlightAware ADS-B
04:15PM 35.9359 -83.8748 207° Southwest 445 512 36,000  Level FlightAware ADS-B
04:15PM 35.9099 -83.8881 203° Southwest 448 516 36,000  Level FlightAware ADS-B
04:16PM 35.8466 -83.9091 195° South 454 522 36,000  Level FlightAware ADS-B
04:16PM 35.7835 -83.9249 191° South 455 524 36,000  Level FlightAware ADS-B
04:17PM 35.7169 -83.9407 191° South 455 524 36,000  Level FlightAware ADS-B
04:17PM 35.6477 -83.9571 191° South 456 525 36,000  Level FlightAware ADS-B
04:18PM 35.5524 -83.9801 191° South 457 526 36,000  Level FlightAware ADS-B
04:19PM 35.4886 -83.9956 191° South 457 526 36,000  Level FlightAware ADS-B
04:19PM 35.4261 -84.0107 191° South 456 525 36,000  Level FlightAware ADS-B
04:20PM 35.3636 -84.0258 191° South 456 525 36,000  Level FlightAware ADS-B
04:20PM 35.2991 -84.0413 191° South 455 524 36,000  Level FlightAware ADS-B
04:21PM 35.2323 -84.0574 191° South 454 522 36,000  Level FlightAware ADS-B
04:21PM 35.1677 -84.0730 191° South 452 520 36,000  Level FlightAware ADS-B
04:22PM 35.0936 -84.0906 191° South 450 518 36,000  Level FlightAware ADS-B
04:22PM 35.0294 -84.1061 191° South 450 518 36,000  Level FlightAware ADS-B
04:24PM 34.8756 -84.1427 191° South 450 518 36,000 -180 Level FlightAware ADS-B
04:24PM 34.8119 -84.1579 191° South 451 519 35,700 -780 Descending FlightAware ADS-B
04:25PM 34.7477 -84.1732 191° South 454 522 35,200 -660 Descending FlightAware ADS-B
04:25PM 34.6752 -84.1902 191° South 448 516 35,000 -180 Descending FlightAware ADS-B
04:26PM 34.6084 -84.2060 191° South 445 512 35,000  Level FlightAware ADS-B
04:26PM 34.5468 -84.2206 191° South 446 513 35,000  Level FlightAware ADS-B
04:27PM 34.4859 -84.2350 191° South 449 517 35,000  Level FlightAware ADS-B
04:27PM 34.4215 -84.2502 191° South 452 520 35,000  Level FlightAware ADS-B
04:29PM 34.2709 -84.2856 191° South 459 528 35,000  Level FlightAware ADS-B
04:29PM 34.2054 -84.3009 191° South 459 528 35,000  Level FlightAware ADS-B
04:30PM 34.1417 -84.3158 191° South 461 531 35,000  Level FlightAware ADS-B
04:30PM 34.0762 -84.3310 191° South 461 531 35,000  Level FlightAware ADS-B
04:31PM 34.0139 -84.3457 191° South 449 517 35,000  Level FlightAware ADS-B
04:31PM 33.9496 -84.3604 191° South 437 503 35,000  Level FlightAware ADS-B
04:32PM 33.8858 -84.3754 191° South 433 498 35,000  Level FlightAware ADS-B
04:32PM 33.8239 -84.3897 191° South 431 496 35,000  Level FlightAware ADS-B
04:33PM 33.7570 -84.4054 191° South 431 496 35,000  Level FlightAware ADS-B
04:33PM 33.6974 -84.4191 191° South 432 497 35,000  Level FlightAware ADS-B
04:34PM 33.6352 -84.4318 190° South 434 499 35,000  Level FlightAware ADS-B
04:34PM 33.5671 -84.4340 182° South 439 505 35,000 60 Level FlightAware ADS-B
04:35PM 33.5056 -84.4330 179° South 439 505 35,100 600 Climbing FlightAware ADS-B
04:35PM 33.4440 -84.4310 178° South 447 514 35,600 1,020 Climbing FlightAware
04:36PM 33.3750 -84.4290 179° South 453 521 36,200 1,020 Climbing FlightAware
04:36PM 33.3100 -84.4280 179° South 455 524 36,700 720 Climbing FlightAware
04:37PM 33.2430 -84.4270 179° South 458 527 37,000 240 Climbing FlightAware
04:38PM 33.1790 -84.4260 179° South 456 525 37,000  Level FlightAware
04:39PM 33.0440 -84.4230 179° South 447 514 37,000  Level FlightAware
04:39PM 32.9740 -84.4210 179° South 445 512 37,000  Level FlightAware
04:40PM 32.9050 -84.4200 179° South 444 511 37,000  Level FlightAware
04:40PM 32.8390 -84.4190 179° South 443 510 37,000  Level FlightAware
04:41PM 32.7720 -84.4180 179° South 442 509 37,000  Level FlightAware
04:42PM 32.6390 -84.4150 179° South 442 509 37,000  Level FlightAware
04:42PM 32.5710 -84.4130 179° South 442 509 37,000  Level FlightAware
04:43PM 32.4960 -84.4120 179° South 441 507 37,000  Level FlightAware
04:44PM 32.4210 -84.4100 179° South 441 507 37,000  Level FlightAware
04:44PM 32.3530 -84.4090 179° South 442 509 37,000  Level FlightAware
04:45PM 32.2900 -84.4080 179° South 441 507 37,000  Level FlightAware
04:45PM 32.2190 -84.4070 179° South 441 507 37,000  Level FlightAware
04:46PM 32.1540 -84.4040 178° South 441 507 37,000  Level FlightAware
04:47PM 32.0350 -84.4020 179° South 443 510 37,000  Level FlightAware
04:47PM 31.9930 -84.4000 178° South 443 510 37,000  Level FlightAware
04:48PM 31.8910 -84.4000 180° South 447 514 37,000  Level FlightAware
04:49PM 31.7960 -84.3980 179° South 449 517 37,000  Level FlightAware
04:49PM 31.7300 -84.3970 179° South 451 519 37,000  Level FlightAware
04:50PM 31.6300 -84.3950 179° South 453 521 37,000  Level FlightAware
04:51PM 31.5530 -84.3930 179° South 455 524 37,000  Level FlightAware
04:51PM 31.4530 -84.3910 179° South 456 525 37,000  Level FlightAware
04:52PM 31.3690 -84.3900 179° South 457 526 37,000  Level FlightAware
04:53PM 31.2840 -84.3780 173° South 469 540 37,000  Level FlightAware
04:53PM 31.2010 -84.3430 160° South 477 549 37,000  Level FlightAware
04:54PM 31.1270 -84.3080 158° South 477 549 37,000  Level FlightAware
04:55PM 31.0570 -84.2750 158° South 476 548 37,000  Level FlightAware
04:55PM 30.9620 -84.2310 158° South 476 548 37,000  Level FlightAware
04:56PM 30.8950 -84.1990 158° South 474 545 37,000  Level FlightAware
04:57PM 30.8074 -84.1588 158° South 474 545 37,000  Level FlightAware ADS-B (KTLH)
04:57PM 30.7268 -84.1215 158° South 474 545 37,000  Level FlightAware ADS-B (KTLH)
04:58PM 30.6457 -84.0840 158° South 474 545 37,000  Level FlightAware ADS-B (KTLH)
04:58PM 30.5832 -84.0554 158° South 475 547 37,000  Level FlightAware ADS-B (KTLH)
04:59PM 30.5233 -84.0279 158° South 474 545 37,000  Level FlightAware ADS-B (KTLH)
04:59PM 30.4621 -83.9996 158° South 475 547 37,000  Level FlightAware ADS-B (KTLH)
05:00PM 30.3907 -83.9669 158° South 474 545 37,000  Level FlightAware ADS-B (KTLH)
05:01PM 30.3275 -83.9379 158° South 474 545 37,000  Level FlightAware ADS-B (KTLH)
05:01PM 30.2223 -83.8897 158° South 475 547 37,000  Level FlightAware ADS-B (KTLH)
05:03PM 30.0910 -83.8300 159° South 475 547 37,000  Level FlightAware
05:03PM 30.0240 -83.7990 158° South 475 547 37,000  Level FlightAware
05:04PM 29.9550 -83.7680 159° South 476 548 37,000  Level FlightAware
05:04PM 29.8610 -83.7250 158° South 478 550 37,000  Level FlightAware
05:05PM 29.7700 -83.6840 159° South 478 550 37,000  Level FlightAware
05:06PM 29.7030 -83.6540 159° South 479 551 37,000  Level FlightAware
05:06PM 29.6330 -83.6220 158° South 480 552 37,000  Level FlightAware
05:07PM 29.5590 -83.5890 159° South 482 555 37,000  Level FlightAware
05:08PM 29.4730 -83.5500 158° South 484 557 37,000  Level FlightAware
05:08PM 29.4050 -83.5200 159° South 485 558 37,000  Level FlightAware
05:09PM 29.3350 -83.4880 158° South 486 559 37,000  Level FlightAware
05:10PM 29.2050 -83.4300 159° South 489 563 37,000  Level FlightAware
05:10PM 29.1410 -83.4010 158° South 488 562 37,000  Level FlightAware
05:10PM 29.1050 -83.3850 159° South 488 562 37,000  Level FlightAware
05:12PM 28.9260 -83.3050 159° South 487 560 37,000  Level FlightAware
05:13PM 28.8080 -83.2530 159° South 487 560 37,000  Level FlightAware
05:13PM 28.7260 -83.2170 159° South 487 560 37,000  Level FlightAware
05:14PM 28.6530 -83.1840 158° South 487 560 37,000  Level FlightAware
05:15PM 28.5160 -83.1240 159° South 486 559 37,000  Level FlightAware
05:16PM 28.4210 -83.0820 159° South 484 557 37,000  Level FlightAware
05:16PM 28.3650 -83.0570 159° South 482 555 37,000  Level FlightAware
05:17PM 28.2840 -83.0220 159° South 480 552 37,000  Level FlightAware
05:18PM 28.1900 -82.9810 159° South 478 550 37,000  Level FlightAware
05:19PM 28.0910 -82.9370 159° South 476 548 37,000  Level FlightAware
05:19PM 28.0230 -82.9070 159° South 477 549 37,000  Level FlightAware
05:20PM 27.8920 -82.8500 159° South 476 548 37,000  Level FlightAware
05:21PM 27.8130 -82.8160 159° South 476 548 37,000  Level FlightAware
05:21PM 27.7530 -82.7900 159° South 476 548 37,000  Level FlightAware
05:22PM 27.6690 -82.7540 159° South 475 547 37,000  Level FlightAware
05:23PM 27.5830 -82.7230 162° South 464 534 37,000  Level FlightAware
05:23PM 27.5170 -82.7110 171° South 454 522 37,000  Level FlightAware
05:24PM 27.4440 -82.7070 177° South 448 516 37,000  Level FlightAware
05:24PM 27.3720 -82.7040 178° South 448 516 37,000  Level FlightAware
05:25PM 27.3120 -82.7010 177° South 448 516 37,000  Level FlightAware
05:25PM 27.2450 -82.6970 177° South 448 516 37,000  Level FlightAware
05:26PM 27.1670 -82.6930 177° South 448 516 37,000  Level FlightAware
05:27PM 27.0940 -82.6890 177° South 447 514 37,000  Level FlightAware
05:28PM 26.9480 -82.6800 177° South 445 512 37,000  Level FlightAware
05:28PM 26.8590 -82.6750 177° South 445 512 37,000  Level FlightAware
05:29PM 26.7810 -82.6710 177° South 445 512 37,000  Level FlightAware
05:30PM 26.7220 -82.6680 177° South 445 512 37,000  Level FlightAware
05:31PM 26.5970 -82.6610 177° South 445 512 37,000  Level FlightAware
05:31PM 26.5400 -82.6570 176° South 445 512 37,000  Level FlightAware
05:32PM 26.4640 -82.6530 177° South 445 512 37,000  Level FlightAware
05:32PM 26.3780 -82.6480 177° South 443 510 37,000  Level FlightAware
05:33PM 26.2980 -82.6440 177° South 442 509 37,000  Level FlightAware
05:33PM 26.2370 -82.6400 177° South 441 507 37,000  Level FlightAware
05:34PM 26.1670 -82.6370 178° South 439 505 37,000  Level FlightAware
05:35PM 26.1010 -82.6330 177° South 439 505 37,000  Level FlightAware
05:35PM 26.0530 -82.6300 177° South 438 504 37,000  Level FlightAware
05:36PM 25.9150 -82.6230 177° South 438 504 37,000  Level FlightAware
05:37PM 25.8580 -82.6200 177° South 438 504 37,000  Level FlightAware
05:37PM 25.8060 -82.6170 177° South 438 504 37,000  Level FlightAware
05:38PM 25.7390 -82.6130 177° South 431 496 37,000  Level FlightAware
05:38PM 25.6720 -82.6090 177° South 431 496 37,000  Level FlightAware
05:39PM 25.5770 -82.6040 177° South 431 496 37,000  Level FlightAware
05:39PM 25.5380 -82.6020 177° South 431 496 37,000  Level FlightAware
05:40PM 25.4920 -82.5990 177° South 431 496 37,000  Level FlightAware
05:40PM 25.4290 -82.5960 178° South 431 496 37,000 -360 Level FlightAware
05:41PM 25.3240 -82.5900 177° South 36,400 -480 Descending FlightAware
05:42PM 25.2280 -82.5850 177° South 437 503 36,300 -120 Descending FlightAware
05:43PM 25.1660 -82.5810 177° South 437 503 36,300  Level FlightAware
05:43PM 25.1040 -82.5780 177° South 437 503 36,300  Level FlightAware
05:44PM 25.0420 -82.5740 177° South 437 503 36,300  Level FlightAware
05:44PM 24.9810 -82.5700 177° South 437 503 36,300 -2,820 Level FlightAware
05:45PM 24.8000 -82.5620 178° South 31,700 -4,200 Descending FlightAware
05:45PM 24.7570 -82.5590 176° South 447 514 31,400 -1,260 Descending FlightAware
05:46PM 24.6990 -82.5560 177° South 451 519 30,700 -420 Descending FlightAware
05:47PM 24.5620 -82.5480 177° South 451 519 30,700  Level FlightAware
05:48PM 24.4750 -82.5430 177° South 451 519 30,700  Level FlightAware
05:49PM 24.4100 -82.5400 178° South 451 519 30,700  Level FlightAware
05:49PM 24.3460 -82.5360 177° South 451 519 30,700  Level FlightAware
05:50PM 24.2360 -82.5300 177° South 451 519 30,700  Level FlightAware
05:52PM 24.1090 -82.5220 177° South 451 519 30,700  Level FlightAware
05:52PM 24.0240 -82.5170 177° South 451 519 30,700  Level FlightAware
05:53PM 23.9160 -82.5110 177° South 451 519 30,700  Level FlightAware
05:54PM 23.8100 -82.5050 177° South 451 519 30,700  Level FlightAware
05:55PM 23.7390 -82.5010 177° South 451 519 30,700  Level FlightAware
05:55PM 23.6960 -82.4990 178° South 451 519 30,700  Level FlightAware
05:56PM 23.6540 -82.4960 176° South 451 519 30,700  Level FlightAware
06:00PM 23.2076 -82.4167 180° South  Level FlightAware Approximate
06:01PM 23.0863 -82.4073 170° South  Level FlightAware Approximate
06:02PM 22.9891 -82.4091 180° South  Level Estimated
06:03PM 22.9891 -82.4091 180° South  Level Estimated
06:04PM 22.9891 -82.4091 180° South  Level Estimated
06:05PM 22.9891 -82.4091 180° South  Level Estimated
06:06PM 22.9891 -82.4091 180° South  Level Estimated
06:07PM 22.9891 -82.4091 180° South  Level Estimated
06:08PM 22.9891 -82.4091 180° South  Level Estimated
06:09PM 22.9891 -82.4091 180° South  Level Estimated
06:10PM 22.9891 -82.4091 180° South  Level Estimated
06:11PM 22.9891 -82.4091 180° South  Level Estimated
06:12PM 22.9891 -82.4091 180° South  Level Estimated
06:13PM 22.9891 -82.4091 180° South  Level Estimated
06:14PM 22.9891 -82.4091 180° South  Level Estimated
06:15PM 22.9891 -82.4091 180° South  Level Estimated
06:16PM 22.9891 -82.4091 180° South  Level Estimated
06:17PM 22.9891 -82.4091 180° South  Level Estimated
06:18PM 22.9891 -82.4091 180° South  Level Estimated
06:19PM 22.9891 -82.4091 180° South  Level Estimated
06:20PM 22.9891 -82.4091 180° South  Level Estimated
06:21PM 22.9891 -82.4091 180° South  Level Estimated
06:22PM 22.9891 -82.4091 180° South  Level Estimated
06:23PM 22.9891 -82.4091 180° South  Level Estimated